Time;durP1;ratioP1;P1;durP2;ratioP2;P2;SDS_P1;SDS_P2;PMS_P1;PMS_P2;Temp;Humidity;BMP_temperature;BMP_pressure;BME280_temperature;BME280_humidity;BME280_pressure;Samples;Min_cycle;Max_cycle;Signal;HPM_P1;HPM_P2
2021/05/07 00:07:35;;;;;;;5.2;2.5;;;;;;;8.66;97.57129;97592.25;;;;
2021/05/07 00:17:34;;;;;;;6.4;2.5;;;;;;;8.53;100;97588.65;;;;
2021/05/07 00:27:32;;;;;;;11.2;6.1;;;;;;;8.06;100;97568.89;;;;
2021/05/07 00:37:31;;;;;;;8.4;4.2;;;;;;;8.01;100;97555.65;;;;
2021/05/07 00:47:30;;;;;;;4.3;2.2;;;;;;;8.04;100;97551.53;;;;
2021/05/07 00:57:28;;;;;;;3.9;1.9;;;;;;;7.97;100;97535.13;;;;
2021/05/07 01:07:27;;;;;;;5.1;2.2;;;;;;;7.92;100;97530.69;;;;
2021/05/07 01:17:25;;;;;;;5.8;1.5;;;;;;;7.99;100;97503.39;;;;
2021/05/07 01:27:25;;;;;;;2.1;1;;;;;;;7.82;100;97498.82;;;;
2021/05/07 01:37:25;;;;;;;3.8;1.8;;;;;;;7.83;100;97470.91;;;;
2021/05/07 01:47:20;;;;;;;3;0.8;;;;;;;8.05;100;97473.39;;;;
2021/05/07 01:57:19;;;;;;;1.9;0.9;;;;;;;8.16;100;97465.03;;;;
2021/05/07 02:07:17;;;;;;;1.7;1;;;;;;;8.25;100;97455.06;;;;
2021/05/07 02:17:16;;;;;;;3.7;1.3;;;;;;;8.3;100;97436.91;;;;
2021/05/07 02:27:14;;;;;;;2;1;;;;;;;8.24;100;97437.37;;;;
2021/05/07 02:37:12;;;;;;;2.4;1.3;;;;;;;8.25;100;97437.06;;;;
2021/05/07 02:47:11;;;;;;;1.9;0.9;;;;;;;8.32;100;97409.75;;;;
2021/05/07 02:57:09;;;;;;;3.6;0.8;;;;;;;8.35;100;97401.05;;;;
2021/05/07 03:07:08;;;;;;;3.7;0.8;;;;;;;8.35;100;97391.11;;;;
2021/05/07 03:17:06;;;;;;;2.8;1.1;;;;;;;8.48;100;97397.36;;;;
2021/05/07 03:27:05;;;;;;;2.8;0.7;;;;;;;8.43;100;97394.88;;;;
2021/05/07 03:37:03;;;;;;;4.1;1;;;;;;;8.55;100;97397.65;;;;
2021/05/07 03:47:02;;;;;;;1.9;1;;;;;;;8.6;100;97386.73;;;;
2021/05/07 03:57:00;;;;;;;1.1;0.7;;;;;;;8.84;100;97383.45;;;;
2021/05/07 04:06:59;;;;;;;1.3;0.8;;;;;;;9.05;100;97376.2;;;;
2021/05/07 04:16:57;;;;;;;2;0.9;;;;;;;9.32;100;97389.13;;;;
2021/05/07 04:26:56;;;;;;;4.1;1.4;;;;;;;9.44;100;97401.86;;;;
2021/05/07 04:36:55;;;;;;;3.8;1.8;;;;;;;9.66;100;97404.19;;;;
2021/05/07 04:46:54;;;;;;;3.4;1.7;;;;;;;9.95;100;97396.02;;;;
2021/05/07 04:56:54;;;;;;;3.5;2;;;;;;;10.21;100;97408.42;;;;
2021/05/07 05:06:50;;;;;;;3.8;1.7;;;;;;;10.51;100;97413.33;;;;
2021/05/07 05:16:49;;;;;;;3.7;1.7;;;;;;;10.8;100;97420.4;;;;
2021/05/07 05:26:48;;;;;;;4.2;2;;;;;;;11.21;100;97416.66;;;;
2021/05/07 05:36:47;;;;;;;2.9;1.5;;;;;;;11.84;100;97398.85;;;;
2021/05/07 05:46:46;;;;;;;3.6;1.7;;;;;;;12.1;95.3457;97401.89;;;;
2021/05/07 05:56:45;;;;;;;3;1.6;;;;;;;12.27;94.0752;97414.29;;;;
2021/05/07 06:06:44;;;;;;;3.5;1.3;;;;;;;12.14;93.36133;97423.59;;;;
2021/05/07 06:16:44;;;;;;;5.3;1.5;;;;;;;11.89;94.18652;97427.53;;;;
2021/05/07 06:26:42;;;;;;;2.7;1.1;;;;;;;12.01;94.08789;97443.66;;;;
2021/05/07 06:36:41;;;;;;;2.3;1.6;;;;;;;12.11;92.22949;97441.25;;;;
2021/05/07 06:46:40;;;;;;;2.1;1;;;;;;;12.99;91.2832;97437.31;;;;
2021/05/07 06:56:39;;;;;;;5.6;1.8;;;;;;;13.71;84.71484;97431.59;;;;
2021/05/07 07:06:38;;;;;;;1.6;0.8;;;;;;;13.73;82.98242;97434.72;;;;
2021/05/07 07:16:37;;;;;;;2.1;1;;;;;;;13.69;86.26172;97431.14;;;;
2021/05/07 07:26:37;;;;;;;2.6;1.2;;;;;;;13.68;84.38086;97429.56;;;;
2021/05/07 07:36:36;;;;;;;3.7;1.4;;;;;;;13.88;85.54297;97429.22;;;;
2021/05/07 07:46:35;;;;;;;3.1;1;;;;;;;13.79;87.22363;97439.48;;;;
2021/05/07 07:56:34;;;;;;;2.5;1.2;;;;;;;14.3;82.4668;97445.52;;;;
2021/05/07 08:06:34;;;;;;;1.8;0.9;;;;;;;14.4;83.09766;97476.72;;;;
2021/05/07 08:16:32;;;;;;;1.2;0.5;;;;;;;13.93;83.53223;97477.7;;;;
2021/05/07 08:26:32;;;;;;;1.8;1;;;;;;;13.54;84.07129;97490.41;;;;
2021/05/07 08:36:31;;;;;;;2.7;0.5;;;;;;;14.55;81.40918;97478.53;;;;
2021/05/07 08:46:30;;;;;;;2;1;;;;;;;14.44;80.95801;97478.34;;;;
2021/05/07 08:56:29;;;;;;;2.3;0.5;;;;;;;14.77;81.16504;97490.55;;;;
2021/05/07 09:06:29;;;;;;;1.4;0.8;;;;;;;15.05;81.95898;97489.11;;;;
2021/05/07 09:16:28;;;;;;;2.1;1;;;;;;;14.56;80.77441;97512.64;;;;
2021/05/07 09:26:27;;;;;;;3.1;1.1;;;;;;;14.13;83.4668;97515.66;;;;
2021/05/07 09:36:26;;;;;;;6.5;1.8;;;;;;;13.82;84.24902;97538.98;;;;
2021/05/07 09:46:26;;;;;;;3.2;1.3;;;;;;;13.51;87.63379;97560.7;;;;
2021/05/07 09:56:25;;;;;;;2;0.9;;;;;;;13.02;92.58789;97561.03;;;;
2021/05/07 10:06:24;;;;;;;2.1;1.2;;;;;;;13.91;92.66211;97542.3;;;;
2021/05/07 10:16:23;;;;;;;4.4;2.7;;;;;;;14.26;83.97949;97536.05;;;;
2021/05/07 10:26:22;;;;;;;2.1;1.1;;;;;;;14.09;82.0293;97534.55;;;;
2021/05/07 10:36:21;;;;;;;3.7;0.9;;;;;;;14.17;84.40625;97519.98;;;;
2021/05/07 10:46:21;;;;;;;2.6;1.3;;;;;;;14.77;80.64258;97553.72;;;;
2021/05/07 10:56:20;;;;;;;4.1;2;;;;;;;15.1;78.39063;97562.06;;;;
2021/05/07 11:06:19;;;;;;;4.5;1.5;;;;;;;15.08;80.4375;97558.94;;;;
2021/05/07 11:16:19;;;;;;;2;0.9;;;;;;;13.72;82.49512;97607.23;;;;
2021/05/07 11:26:18;;;;;;;3.8;1.8;;;;;;;14.39;83.50488;97578.95;;;;
2021/05/07 11:36:18;;;;;;;5.7;1.7;;;;;;;14.4;77.13867;97574.31;;;;
2021/05/07 11:46:17;;;;;;;2;1;;;;;;;14.44;75.55273;97561.59;;;;
2021/05/07 11:56:16;;;;;;;3.8;1.5;;;;;;;15.26;74.11719;97569.31;;;;
2021/05/07 12:06:15;;;;;;;4.4;1.6;;;;;;;14.66;76.54785;97550.02;;;;
2021/05/07 12:16:14;;;;;;;3.2;2;;;;;;;14.67;81.33008;97570.58;;;;
2021/05/07 12:26:14;;;;;;;12.8;2.7;;;;;;;14.29;82.04395;97587.61;;;;
2021/05/07 12:36:13;;;;;;;4.7;1.8;;;;;;;14.63;83.94824;97610.41;;;;
2021/05/07 12:46:12;;;;;;;3.3;1.8;;;;;;;14.95;80.5498;97611.81;;;;
2021/05/07 12:56:11;;;;;;;3.6;1.4;;;;;;;15.17;77.65039;97599.39;;;;
2021/05/07 13:06:11;;;;;;;4.4;2.8;;;;;;;15.52;74.65332;97591.88;;;;
2021/05/07 13:16:10;;;;;;;2.6;1.4;;;;;;;15.26;70.97656;97593.73;;;;
2021/05/07 13:26:09;;;;;;;4;1.6;;;;;;;15.46;68.67676;97614.25;;;;
2021/05/07 13:36:09;;;;;;;3;1.5;;;;;;;15.79;69.00293;97617.13;;;;
2021/05/07 13:46:08;;;;;;;3.3;1.3;;;;;;;15.96;63.49512;97622.08;;;;
2021/05/07 13:56:08;;;;;;;3;2;;;;;;;14.82;67.92773;97642.93;;;;
2021/05/07 14:06:07;;;;;;;4.1;2.1;;;;;;;15.77;68.1416;97641.17;;;;
2021/05/07 14:16:06;;;;;;;5.2;3.2;;;;;;;14.92;73.23926;97671.44;;;;
2021/05/07 14:26:06;;;;;;;5.1;2.4;;;;;;;14.26;78.28711;97691.31;;;;
2021/05/07 14:36:05;;;;;;;6.6;3;;;;;;;14.02;76.5498;97696.95;;;;
2021/05/07 14:46:04;;;;;;;8.1;3.5;;;;;;;13.56;77.25293;97703.93;;;;
2021/05/07 14:56:03;;;;;;;5.5;3.1;;;;;;;13.89;74.66113;97717.12;;;;
2021/05/07 15:06:03;;;;;;;4.8;2.4;;;;;;;13.65;74.14453;97712.66;;;;
2021/05/07 15:16:02;;;;;;;5.8;2.7;;;;;;;13.38;74.25684;97708.09;;;;
2021/05/07 15:26:03;;;;;;;8;4;;;;;;;13.06;75.95313;97697.16;;;;
2021/05/07 15:36:00;;;;;;;6.2;3.6;;;;;;;13.18;76.12012;97706.39;;;;
2021/05/07 15:45:59;;;;;;;7;3.4;;;;;;;12.77;77.75977;97753.5;;;;
2021/05/07 15:55:58;;;;;;;5.4;1.9;;;;;;;11.5;80.88184;97766.36;;;;
2021/05/07 16:05:57;;;;;;;4.1;2.2;;;;;;;11.22;84.37109;97797.72;;;;
2021/05/07 16:15:56;;;;;;;9.8;5.3;;;;;;;10.69;88.48926;97836.95;;;;
2021/05/07 16:25:56;;;;;;;9;5.4;;;;;;;9.31;100;97905.69;;;;
2021/05/07 16:35:56;;;;;;;8.4;5.9;;;;;;;9;100;97903.12;;;;
2021/05/07 16:45:52;;;;;;;12.9;9.5;;;;;;;8.74;100;97938;;;;
2021/05/07 16:55:50;;;;;;;7.3;4.2;;;;;;;8.44;100;97963.77;;;;
2021/05/07 17:05:49;;;;;;;10.2;7.7;;;;;;;8.36;100;97956.48;;;;
2021/05/07 17:15:47;;;;;;;10.1;5.3;;;;;;;8.41;100;97959.02;;;;
2021/05/07 17:25:46;;;;;;;7.5;4.7;;;;;;;8.33;100;97961.67;;;;
2021/05/07 17:35:44;;;;;;;12.3;6.2;;;;;;;8.12;100;97987.41;;;;
2021/05/07 17:45:43;;;;;;;10.8;6.4;;;;;;;7.99;100;97997.88;;;;
2021/05/07 17:55:41;;;;;;;14.4;7.3;;;;;;;7.89;100;98013.42;;;;
2021/05/07 18:05:40;;;;;;;12.2;8.3;;;;;;;7.78;100;98020.91;;;;
2021/05/07 18:15:38;;;;;;;12.3;10;;;;;;;7.67;100;98041;;;;
2021/05/07 18:25:37;;;;;;;13.7;8.2;;;;;;;7.68;100;98057.88;;;;
2021/05/07 18:35:35;;;;;;;12.9;8.2;;;;;;;7.62;100;98078.67;;;;
2021/05/07 18:45:34;;;;;;;20.3;10.5;;;;;;;7.53;100;98128.73;;;;
2021/05/07 18:55:33;;;;;;;29.1;16;;;;;;;7.6;100;98172.05;;;;
2021/05/07 19:05:30;;;;;;;22.1;9.6;;;;;;;7.43;100;98196.73;;;;
2021/05/07 19:15:33;;;;;;;95.3;57.4;;;;;;;7.3;100;98234.24;;;;
2021/05/07 19:25:27;;;;;;;12.4;8.6;;;;;;;7.18;100;98250.02;;;;
2021/05/07 19:35:25;;;;;;;8.4;6.1;;;;;;;7.01;100;98270.08;;;;
2021/05/07 19:45:24;;;;;;;6.5;3.7;;;;;;;6.87;99.80566;98273.81;;;;
2021/05/07 19:55:22;;;;;;;9.2;3.5;;;;;;;6.65;96.59961;98290.45;;;;
2021/05/07 20:05:21;;;;;;;3.9;2.4;;;;;;;6.43;92.76172;98293.67;;;;
2021/05/07 20:15:18;;;;;;;4.7;2.6;;;;;;;6.14;94.44336;98321.62;;;;
2021/05/07 20:25:17;;;;;;;5.5;2.9;;;;;;;5.91;95.04785;98331.2;;;;
2021/05/07 20:35:17;;;;;;;4.9;2.5;;;;;;;5.69;96.15234;98349.59;;;;
2021/05/07 20:45:13;;;;;;;5.7;3.2;;;;;;;5.47;97.1582;98371.42;;;;
2021/05/07 20:55:11;;;;;;;6.6;3.1;;;;;;;5.27;98.88574;98395.63;;;;
2021/05/07 21:05:09;;;;;;;7.2;3.5;;;;;;;5.04;100;98405.89;;;;
2021/05/07 21:15:07;;;;;;;6.2;4;;;;;;;4.94;100;98421.98;;;;
2021/05/07 21:25:05;;;;;;;6.1;3.7;;;;;;;4.82;100;98445.55;;;;
2021/05/07 21:35:09;;;;;;;9;6.7;;;;;;;4.66;100;98453.86;;;;
2021/05/07 21:45:01;;;;;;;8.8;4.7;;;;;;;4.66;100;98467.2;;;;
2021/05/07 21:55:00;;;;;;;6.7;4;;;;;;;4.47;100;98475.01;;;;
2021/05/07 22:04:58;;;;;;;11.2;6.5;;;;;;;4.28;100;98508.64;;;;
2021/05/07 22:14:56;;;;;;;13.2;6.6;;;;;;;4.2;100;98512.64;;;;
2021/05/07 22:24:56;;;;;;;6.1;4.3;;;;;;;4.16;100;98516.13;;;;
2021/05/07 22:34:52;;;;;;;12.8;6.1;;;;;;;4.08;100;98527.32;;;;
2021/05/07 22:44:50;;;;;;;7.4;4.4;;;;;;;3.91;100;98535.59;;;;
2021/05/07 22:54:48;;;;;;;6.6;5.4;;;;;;;3.91;100;98543.58;;;;
2021/05/07 23:04:45;;;;;;;7.7;4.5;;;;;;;3.7;100;98558.74;;;;
2021/05/07 23:14:43;;;;;;;7.5;5.2;;;;;;;3.53;100;98574.16;;;;
2021/05/07 23:24:41;;;;;;;8.4;4.3;;;;;;;3.38;100;98580.23;;;;
2021/05/07 23:34:39;;;;;;;8;5.9;;;;;;;3.32;100;98581.28;;;;
2021/05/07 23:44:37;;;;;;;6.9;4.2;;;;;;;3.26;100;98587.65;;;;
2021/05/07 23:54:35;;;;;;;7;4.3;;;;;;;3.25;100;98593.22;;;;
